createdAt,value
2019-05-15T00:02:27.959Z,8.53
2019-05-15T00:04:58.518Z,11.25
2019-05-15T00:07:29.353Z,12.73
2019-05-15T00:09:58.636Z,10.63
2019-05-15T00:12:28.391Z,9.18
2019-05-15T00:14:58.182Z,7.97
2019-05-15T00:17:28.332Z,5.70
2019-05-15T00:19:58.238Z,8.05
2019-05-15T00:22:29.241Z,5.30
2019-05-15T00:24:58.554Z,3.62
2019-05-15T00:27:28.519Z,8.33
2019-05-15T00:29:57.902Z,9.20
2019-05-15T00:32:28.259Z,5.03
2019-05-15T00:34:58.242Z,8.43
2019-05-15T00:37:28.913Z,5.83
2019-05-15T00:39:59.234Z,7.42
2019-05-15T00:42:28.499Z,11.15
2019-05-15T00:44:59.985Z,7.25
2019-05-15T00:47:29.098Z,11.35
2019-05-15T00:49:58.512Z,11.65
2019-05-15T00:52:28.312Z,7.47
2019-05-15T00:54:59.002Z,5.90
2019-05-15T00:57:29.479Z,8.28
2019-05-15T00:59:59.085Z,5.95
2019-05-15T01:02:28.641Z,9.18
2019-05-15T01:04:58.569Z,12.73
2019-05-15T01:07:28.234Z,10.53
2019-05-15T01:09:57.960Z,10.68
2019-05-15T01:12:29.171Z,10.50
2019-05-15T01:14:58.387Z,9.73
2019-05-15T01:17:29.072Z,13.05
2019-05-15T01:20:00.032Z,9.00
2019-05-15T01:22:29.192Z,10.85
2019-05-15T01:24:59.036Z,10.85
2019-05-15T01:27:29.151Z,12.80
2019-05-15T01:30:00.520Z,12.37
2019-05-15T01:32:30.088Z,11.73
2019-05-15T01:34:59.072Z,10.72
2019-05-15T01:37:28.325Z,12.07
2019-05-15T01:39:58.135Z,10.25
2019-05-15T01:42:28.038Z,10.95
2019-05-15T01:44:58.947Z,12.20
2019-05-15T01:47:28.522Z,10.72
2019-05-15T01:49:58.278Z,7.97
2019-05-15T01:52:28.000Z,9.53
2019-05-15T01:54:58.281Z,9.70
2019-05-15T01:57:28.747Z,10.60
2019-05-15T02:00:00.748Z,9.78
2019-05-15T02:02:28.607Z,7.33
2019-05-15T02:04:59.198Z,9.13
2019-05-15T02:07:28.297Z,9.58
2019-05-15T02:09:58.252Z,10.13
2019-05-15T02:12:28.537Z,10.88
2019-05-15T02:14:58.738Z,10.30
2019-05-15T02:17:28.529Z,9.38
2019-05-15T02:19:58.708Z,12.30
2019-05-15T02:22:28.291Z,10.40
2019-05-15T02:24:59.093Z,11.45
2019-05-15T02:27:29.421Z,9.40
2019-05-15T02:30:16.228Z,7.85
2019-05-15T02:32:30.220Z,9.23
2019-05-15T02:34:59.497Z,11.95
2019-05-15T02:37:29.485Z,11.65
2019-05-15T02:39:59.018Z,13.05
2019-05-15T02:42:28.992Z,11.15
2019-05-15T02:44:58.986Z,12.23
2019-05-15T02:47:29.107Z,12.37
2019-05-15T02:49:59.339Z,9.45
2019-05-15T02:52:29.598Z,5.62
2019-05-15T02:54:59.941Z,6.55
2019-05-15T02:57:30.022Z,7.55
2019-05-15T02:59:59.743Z,7.85
2019-05-15T03:02:29.213Z,5.40
2019-05-15T03:04:59.482Z,7.58
2019-05-15T03:07:29.515Z,9.90
2019-05-15T03:09:59.930Z,8.38
2019-05-15T03:12:29.315Z,9.60
2019-05-15T03:14:59.866Z,9.85
2019-05-15T03:17:29.814Z,8.38
2019-05-15T03:19:59.124Z,7.03
2019-05-15T03:22:29.405Z,8.88
2019-05-15T03:24:59.233Z,6.05
2019-05-15T03:27:30.372Z,6.62
2019-05-15T03:29:59.423Z,8.18
2019-05-15T03:32:40.938Z,6.33
2019-05-15T03:35:04.583Z,6.35
2019-05-15T03:37:33.174Z,8.68
2019-05-15T03:40:00.641Z,6.67
2019-05-15T03:42:29.674Z,9.53
2019-05-15T03:44:59.641Z,10.00
2019-05-15T03:47:30.108Z,5.58
2019-05-15T03:50:00.129Z,7.15
2019-05-15T03:52:29.564Z,9.53
2019-05-15T03:54:59.258Z,8.50
2019-05-15T03:57:30.596Z,9.98
2019-05-15T04:00:03.239Z,9.93
2019-05-15T04:02:32.545Z,9.30
2019-05-15T04:05:02.333Z,8.28
2019-05-15T04:07:31.542Z,11.10
2019-05-15T04:10:00.842Z,11.25
2019-05-15T04:12:30.850Z,10.75
2019-05-15T04:15:00.426Z,8.05
2019-05-15T04:17:29.726Z,4.78
2019-05-15T04:19:59.046Z,9.93
2019-05-15T04:22:29.069Z,11.22
2019-05-15T04:24:59.372Z,8.88
2019-05-15T04:27:29.291Z,10.78
2019-05-15T04:29:59.284Z,7.10
2019-05-15T04:32:29.000Z,9.48
2019-05-15T04:34:59.361Z,8.23
2019-05-15T04:37:29.886Z,9.30
2019-05-15T04:40:00.246Z,12.75
2019-05-15T04:42:30.071Z,11.50
2019-05-15T04:44:59.720Z,13.35
2019-05-15T04:47:30.304Z,12.35
2019-05-15T04:49:59.625Z,11.73
2019-05-15T04:52:30.385Z,12.80
2019-05-15T04:54:59.770Z,10.35
2019-05-15T04:57:33.780Z,8.60
2019-05-15T04:59:59.728Z,10.00
2019-05-15T05:02:32.304Z,13.15
2019-05-15T05:04:59.584Z,10.70
2019-05-15T05:07:29.537Z,10.38
2019-05-15T05:09:59.564Z,8.93
2019-05-15T05:12:29.012Z,10.25
2019-05-15T05:14:58.809Z,12.58
2019-05-15T05:17:28.944Z,10.28
2019-05-15T05:19:58.401Z,10.70
2019-05-15T05:22:28.201Z,11.90
2019-05-15T05:24:58.536Z,11.93
2019-05-15T05:27:28.833Z,7.10
2019-05-15T05:29:58.703Z,10.55
2019-05-15T05:32:34.635Z,6.45
2019-05-15T05:34:58.966Z,8.50
2019-05-15T05:37:28.792Z,11.53
2019-05-15T05:39:58.039Z,8.80
2019-05-15T05:42:29.146Z,7.10
2019-05-15T05:44:58.257Z,6.80
2019-05-15T05:47:28.824Z,7.50
2019-05-15T05:49:58.215Z,8.43
2019-05-15T05:52:28.008Z,8.10
2019-05-15T05:54:58.100Z,9.43
2019-05-15T05:57:27.973Z,6.62
2019-05-15T05:59:58.287Z,6.15
2019-05-15T06:02:28.015Z,6.22
2019-05-15T06:04:58.276Z,8.08
2019-05-15T06:07:27.985Z,6.58
2019-05-15T06:09:58.180Z,5.35
2019-05-15T06:12:28.148Z,5.70
2019-05-15T06:14:58.036Z,4.67
2019-05-15T06:17:28.064Z,6.03
2019-05-15T06:19:58.622Z,4.75
2019-05-15T06:22:28.092Z,6.28
2019-05-15T06:24:57.950Z,5.67
2019-05-15T06:27:27.996Z,6.03
2019-05-15T06:29:58.039Z,6.30
2019-05-15T06:32:28.972Z,8.65
2019-05-15T06:34:58.377Z,7.55
2019-05-15T06:37:28.664Z,7.35
2019-05-15T06:39:58.802Z,7.47
2019-05-15T06:42:28.399Z,8.78
2019-05-15T06:44:58.976Z,7.87
2019-05-15T06:47:28.494Z,7.60
2019-05-15T06:49:57.987Z,6.50
2019-05-15T06:52:28.463Z,6.78
2019-05-15T06:54:59.250Z,7.33
2019-05-15T06:57:29.406Z,6.58
2019-05-15T06:59:59.001Z,7.12
2019-05-15T07:02:28.614Z,8.73
2019-05-15T07:04:58.535Z,8.30
2019-05-15T07:07:28.780Z,7.70
2019-05-15T07:09:59.746Z,7.20
2019-05-15T07:12:28.938Z,6.00
2019-05-15T07:14:58.312Z,7.55
2019-05-15T07:17:28.750Z,6.03
2019-05-15T07:19:59.193Z,8.13
2019-05-15T07:22:29.004Z,7.30
2019-05-15T07:24:58.562Z,7.15
2019-05-15T07:27:29.129Z,6.58
2019-05-15T07:29:59.000Z,7.08
2019-05-15T07:32:28.586Z,8.40
2019-05-15T07:34:58.035Z,8.05
2019-05-15T07:37:28.991Z,8.20
2019-05-15T07:39:59.107Z,7.85
2019-05-15T07:42:29.152Z,8.23
2019-05-15T07:44:59.081Z,7.87
2019-05-15T07:47:29.167Z,7.22
2019-05-15T07:49:59.120Z,7.30
2019-05-15T07:52:28.839Z,7.22
2019-05-15T07:54:58.430Z,7.65
2019-05-15T07:57:29.916Z,7.05
2019-05-15T07:59:58.859Z,8.53
2019-05-15T08:02:28.442Z,7.85
2019-05-15T08:04:57.743Z,7.53
2019-05-15T08:07:27.875Z,9.00
2019-05-15T08:09:59.233Z,8.83
2019-05-15T08:12:28.397Z,8.68
2019-05-15T08:14:58.243Z,8.73
2019-05-15T08:17:28.931Z,10.65
2019-05-15T08:19:58.369Z,8.33
2019-05-15T08:22:28.435Z,9.23
2019-05-15T08:24:59.179Z,8.65
2019-05-15T08:27:29.974Z,9.30
2019-05-15T08:29:59.410Z,10.30
2019-05-15T08:32:29.200Z,8.85
2019-05-15T08:34:58.914Z,10.65
2019-05-15T08:37:29.269Z,8.68
2019-05-15T08:39:59.598Z,10.10
2019-05-15T08:42:32.448Z,9.78
2019-05-15T08:45:02.286Z,10.95
2019-05-15T08:47:32.158Z,10.10
2019-05-15T08:50:01.685Z,10.93
2019-05-15T08:52:31.440Z,9.60
2019-05-15T08:55:00.985Z,9.68
2019-05-15T08:57:30.466Z,10.85
2019-05-15T08:59:59.920Z,8.80
2019-05-15T09:02:29.299Z,8.65
2019-05-15T09:04:58.485Z,9.58
2019-05-15T09:07:28.735Z,10.10
2019-05-15T09:09:58.409Z,8.88
2019-05-15T09:12:29.499Z,9.90
2019-05-15T09:14:58.755Z,9.95
2019-05-15T09:17:28.616Z,9.35
2019-05-15T09:19:58.812Z,9.90
2019-05-15T09:22:29.176Z,10.65
2019-05-15T09:24:59.128Z,10.90
2019-05-15T09:27:28.355Z,11.03
2019-05-15T09:29:59.873Z,10.63
2019-05-15T09:32:29.650Z,11.70
2019-05-15T09:34:59.541Z,11.55
2019-05-15T09:37:33.521Z,10.32
2019-05-15T09:40:01.853Z,11.45
2019-05-15T09:42:31.417Z,11.15
2019-05-15T09:45:00.566Z,12.07
2019-05-15T09:47:29.858Z,13.20
2019-05-15T09:49:59.443Z,12.65
2019-05-15T09:52:30.102Z,11.85
2019-05-15T09:54:59.932Z,12.88
2019-05-15T09:57:30.213Z,13.18
2019-05-15T09:59:59.825Z,12.00
2019-05-15T10:02:28.876Z,11.68
2019-05-15T10:05:06.710Z,11.25
2019-05-15T10:07:29.002Z,12.30
2019-05-15T10:09:58.609Z,10.65
2019-05-15T10:12:34.489Z,11.15
2019-05-15T10:14:59.255Z,10.18
2019-05-15T10:17:29.069Z,10.10
2019-05-15T10:19:58.421Z,10.05
2019-05-15T10:22:28.310Z,9.03
2019-05-15T10:24:58.722Z,8.83
2019-05-15T10:27:28.759Z,10.10
2019-05-15T10:29:58.838Z,9.05
2019-05-15T10:32:28.968Z,9.43
2019-05-15T10:34:58.674Z,8.40
2019-05-15T10:37:28.643Z,9.48
2019-05-15T10:39:58.463Z,9.00
2019-05-15T10:42:28.960Z,8.78
2019-05-15T10:44:58.874Z,8.65
2019-05-15T10:47:28.938Z,8.88
2019-05-15T10:50:00.163Z,10.25
2019-05-15T10:52:29.184Z,9.78
2019-05-15T10:55:00.947Z,11.12
2019-05-15T10:57:29.633Z,8.80
2019-05-15T10:59:59.137Z,9.60
2019-05-15T11:02:29.047Z,9.75
2019-05-15T11:04:58.763Z,10.00
2019-05-15T11:07:28.453Z,9.83
2019-05-15T11:09:58.240Z,9.35
2019-05-15T11:12:29.273Z,8.43
2019-05-15T11:14:58.137Z,8.03
2019-05-15T11:17:29.067Z,8.68
2019-05-15T11:19:58.613Z,7.17
2019-05-15T11:22:29.852Z,7.87
2019-05-15T11:24:59.465Z,6.83
2019-05-15T11:27:31.392Z,7.92
2019-05-15T11:29:59.624Z,6.90
2019-05-15T11:32:29.406Z,6.97
2019-05-15T11:34:58.701Z,7.62
2019-05-15T11:37:28.361Z,7.72
2019-05-15T11:39:58.947Z,7.95
2019-05-15T11:42:28.846Z,7.50
2019-05-15T11:44:58.488Z,8.65
2019-05-15T11:47:28.023Z,8.40
2019-05-15T11:49:58.444Z,8.95
2019-05-15T11:52:29.375Z,8.35
2019-05-15T11:55:02.536Z,8.98
2019-05-15T11:57:42.363Z,9.20
2019-05-15T12:00:02.253Z,9.80
2019-05-15T12:02:31.801Z,9.05
2019-05-15T12:05:02.437Z,9.23
2019-05-15T12:07:31.719Z,8.90
2019-05-15T12:10:00.962Z,9.18
2019-05-15T12:12:32.085Z,8.73
2019-05-15T12:15:01.046Z,8.10
2019-05-15T12:17:30.376Z,10.03
2019-05-15T12:20:05.903Z,8.25
2019-05-15T12:22:30.648Z,8.43
2019-05-15T12:25:00.710Z,9.63
2019-05-15T12:27:30.561Z,8.70
2019-05-15T12:30:00.033Z,8.93
2019-05-15T12:35:00.531Z,7.92
2019-05-15T12:37:29.731Z,9.43
2019-05-15T13:00:12.530Z,8.55
2019-05-15T13:02:41.874Z,8.85
2019-05-15T13:05:11.026Z,7.83
2019-05-15T13:07:40.104Z,8.68
2019-05-15T13:10:09.535Z,7.90
2019-05-15T13:12:54.165Z,7.40
2019-05-15T13:15:10.097Z,8.00
2019-05-15T13:17:39.161Z,8.08
2019-05-15T13:20:08.456Z,6.80
2019-05-15T13:22:39.371Z,6.35
2019-05-15T13:25:09.048Z,7.17
2019-05-15T13:27:38.560Z,7.10
2019-05-15T13:30:11.016Z,6.72
2019-05-15T13:32:40.986Z,6.28
2019-05-15T13:35:11.317Z,5.60
2019-05-15T13:37:40.628Z,5.90
2019-05-15T13:40:09.784Z,6.08
2019-05-15T13:42:39.182Z,6.10
2019-05-15T13:45:12.616Z,6.22
2019-05-15T13:47:40.392Z,6.20
2019-05-15T13:50:09.848Z,6.75
2019-05-15T13:52:40.641Z,6.75
2019-05-15T13:55:10.178Z,5.12
2019-05-15T13:57:39.200Z,5.05
2019-05-15T14:00:09.767Z,6.15
2019-05-15T14:02:38.993Z,6.05
2019-05-15T14:05:09.693Z,6.40
2019-05-15T14:07:49.056Z,5.95
2019-05-15T14:10:11.328Z,6.10
2019-05-15T14:12:40.287Z,5.95
2019-05-15T14:15:10.216Z,6.05
2019-05-15T14:17:39.416Z,5.95
2019-05-15T14:20:09.448Z,5.85
2019-05-15T14:22:39.171Z,5.37
2019-05-15T14:25:09.459Z,6.20
2019-05-15T14:27:39.673Z,6.00
2019-05-15T14:30:10.992Z,6.53
2019-05-15T14:32:40.122Z,5.58
2019-05-15T14:35:09.879Z,6.15
2019-05-15T14:37:39.176Z,7.05
2019-05-15T14:40:09.792Z,6.17
2019-05-15T14:42:39.752Z,5.40
2019-05-15T14:45:12.328Z,6.12
2019-05-15T14:47:41.448Z,5.95
2019-05-15T14:50:11.161Z,6.30
2019-05-15T14:52:40.440Z,6.80
2019-05-15T14:55:12.850Z,6.95
2019-05-15T14:57:42.128Z,6.12
2019-05-15T15:00:11.794Z,5.87
2019-05-15T15:02:40.765Z,5.03
2019-05-15T15:05:10.890Z,4.25
2019-05-15T15:07:39.913Z,5.90
2019-05-15T15:10:09.120Z,5.75
2019-05-15T15:12:39.750Z,6.17
2019-05-15T15:15:10.595Z,5.37
2019-05-15T15:17:39.856Z,5.65
2019-05-15T15:20:09.384Z,4.53
2019-05-15T15:22:39.651Z,5.83
2019-05-15T15:25:10.956Z,5.08
2019-05-15T15:27:40.455Z,5.45
2019-05-15T15:30:10.898Z,5.08
2019-05-15T15:32:40.593Z,5.15
2019-05-15T15:35:09.825Z,5.95
2019-05-15T15:37:39.275Z,5.90
2019-05-15T15:40:09.936Z,4.58
2019-05-15T15:42:39.631Z,5.10
2019-05-15T15:45:09.761Z,6.28
2019-05-15T15:47:39.218Z,4.70
2019-05-15T15:50:10.020Z,5.90
2019-05-15T15:52:39.468Z,5.70
2019-05-15T15:55:09.314Z,5.65
2019-05-15T15:57:39.683Z,5.22
2019-05-15T16:00:10.626Z,5.55
2019-05-15T16:02:41.267Z,6.55
2019-05-15T16:05:11.635Z,5.87
2019-05-15T16:07:43.393Z,5.87
2019-05-15T16:10:12.063Z,5.75
2019-05-15T16:12:41.380Z,6.15
2019-05-15T16:15:11.257Z,5.60
2019-05-15T16:17:40.345Z,5.35
2019-05-15T16:20:11.074Z,5.80
2019-05-15T16:22:42.939Z,5.80
2019-05-15T16:25:10.951Z,5.17
2019-05-15T16:27:40.104Z,6.50
2019-05-15T16:30:10.391Z,4.90
2019-05-15T16:32:41.029Z,5.30
2019-05-15T16:35:10.552Z,5.25
2019-05-15T16:37:40.056Z,5.17
2019-05-15T16:40:09.432Z,4.78
2019-05-15T16:42:38.817Z,4.72
2019-05-15T16:45:09.721Z,4.95
2019-05-15T16:47:39.912Z,5.08
2019-05-15T16:50:09.998Z,5.58
2019-05-15T16:52:39.234Z,5.47
2019-05-15T16:55:09.794Z,5.05
2019-05-15T16:57:39.208Z,5.35
2019-05-15T17:00:09.945Z,5.08
2019-05-15T17:02:39.929Z,5.85
2019-05-15T17:05:10.161Z,5.70
2019-05-15T17:07:39.705Z,5.15
2019-05-15T17:10:09.248Z,6.05
2019-05-15T17:12:39.084Z,6.30
2019-05-15T17:15:10.064Z,5.55
2019-05-15T17:17:39.976Z,5.75
2019-05-15T17:20:10.345Z,5.78
2019-05-15T17:22:39.673Z,4.67
2019-05-15T17:25:09.738Z,6.25
2019-05-15T17:27:38.737Z,6.47
2019-05-15T17:30:09.937Z,6.33
2019-05-15T17:32:40.041Z,5.92
2019-05-15T17:35:10.251Z,5.80
2019-05-15T17:37:39.864Z,5.70
2019-05-15T17:40:09.832Z,6.58
2019-05-15T17:42:39.310Z,6.20
2019-05-15T17:45:09.343Z,5.90
2019-05-15T17:47:39.925Z,5.85
2019-05-15T17:50:11.737Z,5.35
2019-05-15T17:52:40.729Z,6.42
2019-05-15T17:55:10.446Z,5.47
2019-05-15T17:57:40.113Z,6.33
2019-05-15T18:00:12.520Z,6.00
2019-05-15T18:02:40.951Z,6.65
2019-05-15T18:05:10.658Z,6.17
2019-05-15T18:07:40.064Z,5.65
2019-05-15T18:10:09.696Z,5.40
2019-05-15T18:12:39.137Z,5.78
2019-05-15T18:15:09.423Z,5.45
2019-05-15T18:17:48.208Z,4.95
2019-05-15T18:20:29.896Z,5.22
2019-05-15T18:22:59.446Z,4.62
2019-05-15T18:25:28.681Z,4.65
2019-05-15T18:27:59.131Z,4.58
2019-05-15T18:30:28.739Z,5.35
2019-05-15T18:32:58.878Z,4.90
2019-05-15T18:35:29.507Z,4.58
2019-05-15T18:37:59.267Z,4.03
2019-05-15T18:40:28.248Z,5.90
2019-05-15T18:42:59.222Z,5.50
2019-05-15T18:45:28.949Z,3.90
2019-05-15T18:47:58.886Z,5.42
2019-05-15T18:50:28.564Z,3.92
2019-05-15T18:52:58.554Z,5.72
2019-05-15T18:55:28.090Z,5.45
2019-05-15T18:57:58.481Z,6.47
2019-05-15T19:00:29.535Z,5.90
2019-05-15T19:02:59.430Z,5.90
2019-05-15T19:05:28.879Z,6.50
2019-05-15T19:07:59.528Z,6.47
2019-05-15T19:10:28.881Z,7.47
2019-05-15T19:12:58.497Z,6.22
2019-05-15T19:15:28.759Z,7.12
2019-05-15T19:17:58.812Z,6.20
2019-05-15T19:20:28.298Z,6.22
2019-05-15T19:22:59.030Z,6.92
2019-05-15T19:25:28.772Z,6.55
2019-05-15T19:27:57.750Z,7.03
2019-05-15T19:30:28.658Z,6.12
2019-05-15T19:32:58.564Z,5.08
2019-05-15T19:35:28.169Z,6.72
2019-05-15T19:37:58.695Z,5.42
2019-05-15T19:40:28.606Z,6.45
2019-05-15T19:42:59.116Z,8.03
2019-05-15T19:45:28.800Z,8.13
2019-05-15T19:47:58.836Z,5.97
2019-05-15T19:50:28.735Z,8.43
2019-05-15T19:52:59.111Z,6.95
2019-05-15T19:55:29.104Z,4.15
2019-05-15T19:57:58.955Z,8.58
2019-05-15T20:00:28.918Z,8.35
2019-05-15T20:02:59.400Z,8.65
2019-05-15T20:05:48.711Z,7.47
2019-05-15T20:08:18.458Z,7.53
2019-05-15T20:10:48.032Z,5.08
2019-05-15T20:13:18.355Z,7.80
2019-05-15T20:15:48.646Z,4.70
2019-05-15T20:18:19.856Z,5.42
2019-05-15T20:20:49.512Z,6.58
2019-05-15T20:23:19.928Z,5.35
2019-05-15T20:25:49.977Z,9.08
2019-05-15T20:28:19.229Z,6.50
2019-05-15T20:30:49.033Z,7.85
2019-05-15T20:33:18.433Z,4.12
2019-05-15T20:35:48.284Z,4.25
2019-05-15T20:38:19.297Z,7.08
2019-05-15T20:40:49.186Z,5.08
2019-05-15T20:43:18.833Z,3.98
2019-05-15T20:45:51.857Z,5.75
2019-05-15T20:48:21.858Z,6.03
2019-05-15T20:50:51.297Z,5.53
2019-05-15T20:53:23.688Z,5.47
2019-05-15T20:55:53.680Z,4.78
2019-05-15T20:58:23.176Z,5.95
2019-05-15T21:00:53.818Z,5.75
2019-05-15T21:03:25.056Z,4.53
2019-05-15T21:06:08.701Z,7.45
2019-05-15T21:08:39.011Z,5.03
2019-05-15T21:11:11.793Z,5.95
2019-05-15T21:13:43.288Z,9.58
2019-05-15T21:16:14.521Z,6.75
2019-05-15T21:18:44.217Z,9.63
2019-05-15T21:21:18.859Z,10.20
2019-05-15T21:23:49.184Z,5.15
2019-05-15T21:26:19.394Z,5.12
2019-05-15T21:28:49.456Z,5.05
2019-05-15T21:31:22.013Z,6.05
2019-05-15T21:33:53.265Z,5.42
2019-05-15T21:36:28.195Z,8.30
2019-05-15T21:39:00.544Z,9.80
2019-05-15T21:41:30.465Z,8.35
2019-05-15T21:44:00.791Z,6.25
2019-05-15T21:46:30.793Z,10.05
2019-05-15T21:49:01.338Z,6.95
2019-05-15T21:51:33.616Z,7.10
2019-05-15T21:54:06.360Z,9.60
2019-05-15T21:56:39.472Z,9.53
2019-05-15T21:59:09.417Z,7.30
2019-05-15T22:01:39.960Z,5.17
2019-05-15T22:04:11.161Z,6.78
2019-05-15T22:06:42.393Z,5.25
2019-05-15T22:09:15.665Z,5.62
2019-05-15T22:11:49.786Z,7.62
2019-05-15T22:14:24.576Z,7.85
2019-05-15T22:16:59.741Z,10.20
2019-05-15T22:19:30.265Z,8.15
2019-05-15T22:22:01.763Z,10.35
2019-05-15T22:24:35.108Z,12.93
2019-05-15T22:27:04.425Z,7.47
2019-05-15T22:29:34.064Z,8.23
2019-05-15T22:32:03.472Z,10.25
2019-05-15T22:34:33.283Z,10.28
2019-05-15T22:37:02.673Z,8.18
2019-05-15T22:39:31.953Z,10.58
2019-05-15T22:42:01.032Z,10.20
2019-05-15T22:44:30.528Z,12.43
2019-05-15T22:47:00.482Z,7.87
2019-05-15T22:49:30.200Z,10.85
2019-05-15T22:51:59.632Z,10.68
2019-05-15T22:54:29.761Z,9.40
2019-05-15T22:56:59.464Z,7.70
2019-05-15T22:59:29.111Z,4.60
2019-05-15T23:01:58.838Z,7.47
2019-05-15T23:04:28.681Z,11.22
2019-05-15T23:06:58.323Z,11.25
2019-05-15T23:09:28.403Z,14.50
2019-05-15T23:11:59.314Z,13.25
2019-05-15T23:14:30.200Z,14.18
2019-05-15T23:16:59.881Z,11.35
2019-05-15T23:19:29.305Z,12.05
2019-05-15T23:21:59.172Z,15.00
2019-05-15T23:24:28.664Z,10.98
2019-05-15T23:26:58.372Z,9.50
2019-05-15T23:29:28.297Z,10.68
2019-05-15T23:31:58.382Z,11.15
2019-05-15T23:34:28.065Z,10.25
2019-05-15T23:36:57.742Z,10.58
2019-05-15T23:39:27.104Z,10.23
2019-05-15T23:41:58.345Z,10.18
2019-05-15T23:44:27.751Z,13.40
2019-05-15T23:46:59.552Z,9.30
2019-05-15T23:49:28.699Z,8.15
2019-05-15T23:51:58.298Z,10.00
2019-05-15T23:54:27.948Z,11.43
2019-05-15T23:56:58.379Z,11.50
2019-05-15T23:59:28.202Z,8.75
